Time;durP1;ratioP1;P1;durP2;ratioP2;P2;SDS_P1;SDS_P2;PMS_P1;PMS_P2;Temp;Humidity;BMP_temperature;BMP_pressure;BME280_temperature;BME280_humidity;BME280_pressure;Samples;Min_cycle;Max_cycle;Signal;HPM_P1;HPM_P2
2022/03/07 00:00:34;;;;;;;12.48;9.98;;;;;;;0.17;71.79;102693.50;5008156;28;20022;-74
2022/03/07 00:03:03;;;;;;;14.82;10.07;;;;;;;0.15;71.56;102697.81;5011003;28;20098;-74
2022/03/07 00:05:28;;;;;;;13.77;10.23;;;;;;;0.13;71.36;102696.09;5011697;28;20402;-75
2022/03/07 00:07:54;;;;;;;12.52;10.15;;;;;;;0.12;72.11;102684.03;5011523;28;20018;-75
2022/03/07 00:10:19;;;;;;;12.15;9.65;;;;;;;0.10;71.82;102696.97;5010757;28;20026;-75
2022/03/07 00:12:44;;;;;;;12.38;10.02;;;;;;;0.09;71.87;102689.19;5011251;28;20034;-74
2022/03/07 00:15:10;;;;;;;13.68;10.15;;;;;;;0.06;71.90;102691.78;5006247;28;20061;-74
2022/03/07 00:17:35;;;;;;;14.60;10.35;;;;;;;0.04;72.22;102696.09;5009381;28;20080;-75
2022/03/07 00:20:01;;;;;;;13.95;10.48;;;;;;;0.02;71.94;102697.84;5011049;28;20030;-75
2022/03/07 00:22:26;;;;;;;14.85;10.57;;;;;;;-0.02;72.35;102697.81;5009810;28;20382;-75
2022/03/07 00:24:51;;;;;;;15.52;11.00;;;;;;;-0.02;72.33;102694.34;4996245;28;20049;-75
2022/03/07 00:27:17;;;;;;;14.93;10.68;;;;;;;-0.04;72.43;102694.34;5011453;28;20025;-74
2022/03/07 00:29:42;;;;;;;16.52;11.68;;;;;;;-0.07;72.43;102693.50;5011614;28;20127;-74
2022/03/07 00:32:08;;;;;;;16.92;10.88;;;;;;;-0.11;72.62;102697.81;5006900;28;20435;-74
2022/03/07 00:34:33;;;;;;;16.92;11.10;;;;;;;-0.12;72.38;102701.28;5010767;28;20049;-74
2022/03/07 00:36:59;;;;;;;15.57;11.70;;;;;;;-0.15;72.62;102701.28;5010253;28;20508;-74
2022/03/07 00:39:24;;;;;;;14.73;11.38;;;;;;;-0.20;72.29;102707.31;5010755;28;20033;-75
2022/03/07 00:41:49;;;;;;;15.85;11.10;;;;;;;-0.24;72.62;102701.28;5011766;28;20033;-74
2022/03/07 00:44:14;;;;;;;14.10;11.27;;;;;;;-0.28;73.15;102704.72;5010105;28;20072;-74
2022/03/07 00:46:40;;;;;;;12.93;10.93;;;;;;;-0.30;73.15;102701.28;4999032;28;20030;-75
2022/03/07 00:49:05;;;;;;;14.05;10.82;;;;;;;-0.33;73.36;102701.28;5008068;28;20038;-74
2022/03/07 00:51:30;;;;;;;14.05;10.90;;;;;;;-0.34;73.31;102704.72;5007616;28;20040;-75
2022/03/07 00:53:56;;;;;;;15.75;11.20;;;;;;;-0.36;73.58;102701.28;5011025;28;20026;-74
2022/03/07 00:56:21;;;;;;;14.93;10.88;;;;;;;-0.39;73.63;102706.44;5010960;28;20014;-75
2022/03/07 00:58:46;;;;;;;15.23;11.52;;;;;;;-0.40;73.45;102704.69;5009986;28;20034;-75
2022/03/07 01:01:12;;;;;;;15.35;11.13;;;;;;;-0.47;73.85;102703.81;5010144;28;20030;-75
2022/03/07 01:03:37;;;;;;;15.32;11.98;;;;;;;-0.51;73.95;102707.25;5010447;28;20389;-75
2022/03/07 01:06:03;;;;;;;16.75;11.63;;;;;;;-0.53;74.17;102708.13;5009726;28;20029;-77
2022/03/07 01:08:28;;;;;;;14.18;11.10;;;;;;;-0.56;73.39;102708.97;5005467;28;20021;-75
2022/03/07 01:10:54;;;;;;;16.85;11.82;;;;;;;-0.61;73.69;102712.41;5010121;28;20022;-75
2022/03/07 01:13:20;;;;;;;14.70;11.57;;;;;;;-0.63;74.08;102709.84;5009744;28;20474;-75
2022/03/07 01:15:46;;;;;;;15.88;11.63;;;;;;;-0.68;74.04;102715.00;5004509;28;20030;-75
2022/03/07 01:18:11;;;;;;;17.95;11.70;;;;;;;-0.74;73.47;102724.47;4990615;28;20026;-75
2022/03/07 01:20:36;;;;;;;16.73;12.38;;;;;;;-0.81;73.81;102717.50;4989941;28;20439;-75
2022/03/07 01:23:02;;;;;;;18.40;11.73;;;;;;;-0.85;74.13;102710.63;4990538;28;20014;-76
2022/03/07 01:25:28;;;;;;;15.18;11.40;;;;;;;-0.92;74.04;102712.31;5006456;28;20083;-77
2022/03/07 01:27:53;;;;;;;14.10;12.15;;;;;;;-0.98;74.59;102710.59;5004607;28;20148;-77
2022/03/07 01:30:19;;;;;;;15.30;11.32;;;;;;;-1.03;74.15;102708.84;5010158;28;20493;-77
2022/03/07 01:32:44;;;;;;;16.83;11.45;;;;;;;-1.10;75.05;102700.22;5010364;28;20399;-77
2022/03/07 01:35:09;;;;;;;16.50;11.68;;;;;;;-1.14;75.01;102707.94;5009688;28;20081;-76
2022/03/07 01:37:35;;;;;;;16.35;11.48;;;;;;;-1.18;75.14;102703.63;5009967;28;20025;-76
2022/03/07 01:40:00;;;;;;;16.95;11.98;;;;;;;-1.21;75.31;102701.00;4990870;28;20540;-77
2022/03/07 01:42:26;;;;;;;16.90;11.38;;;;;;;-1.26;75.21;102700.97;4989191;28;20534;-74
2022/03/07 01:44:51;;;;;;;15.35;12.13;;;;;;;-1.30;75.72;102702.69;4995422;28;20032;-74
2022/03/07 01:47:17;;;;;;;16.23;12.35;;;;;;;-1.32;75.61;102713.88;5008868;28;20036;-74
2022/03/07 01:49:42;;;;;;;16.48;12.52;;;;;;;-1.37;75.50;102708.69;5009284;28;20030;-74
2022/03/07 01:52:08;;;;;;;14.98;11.73;;;;;;;-1.42;75.59;102705.22;5009873;28;20022;-75
2022/03/07 01:54:34;;;;;;;16.73;11.45;;;;;;;-1.47;75.83;102706.06;5010395;28;20088;-74
2022/03/07 01:56:59;;;;;;;16.52;12.25;;;;;;;-1.52;75.99;102706.03;5009432;28;20421;-74
2022/03/07 01:59:27;;;;;;;20.02;12.50;;;;;;;-1.54;76.27;102712.03;5009648;28;20108;-74
2022/03/07 02:01:54;;;;;;;16.45;11.85;;;;;;;-1.58;76.10;102708.56;5004092;28;20026;-74
2022/03/07 02:04:19;;;;;;;15.75;11.60;;;;;;;-1.60;76.31;102702.53;5009511;28;20033;-74
2022/03/07 02:06:47;;;;;;;14.05;11.52;;;;;;;-1.62;76.44;102699.91;5009200;28;20030;-74
2022/03/07 02:09:12;;;;;;;18.17;12.60;;;;;;;-1.64;76.17;102699.06;5007330;28;20030;-74
2022/03/07 02:11:38;;;;;;;18.63;11.77;;;;;;;-1.64;76.13;102695.59;4997654;28;20372;-74
2022/03/07 02:14:34;;;;;;;18.63;12.52;;;;;;;-1.63;76.12;102689.59;4989664;28;20048;-74
2022/03/07 02:17:00;;;;;;;15.20;12.10;;;;;;;-1.70;76.44;102693.00;4980595;28;20038;-74
2022/03/07 02:19:25;;;;;;;16.90;11.75;;;;;;;-1.75;76.79;102692.97;5000434;28;20045;-74
2022/03/07 02:21:59;;;;;;;17.42;11.52;;;;;;;-1.77;77.06;102693.81;5009103;28;20045;-74
2022/03/07 02:24:24;;;;;;;14.88;12.35;;;;;;;-1.82;77.09;102692.91;5008069;28;20021;-74
2022/03/07 02:26:57;;;;;;;17.25;12.52;;;;;;;-1.83;77.42;102686.03;5007904;28;20538;-74
2022/03/07 02:29:22;;;;;;;18.05;12.32;;;;;;;-1.86;77.31;102683.44;5009323;28;20074;-74
2022/03/07 02:31:47;;;;;;;16.60;11.73;;;;;;;-1.88;77.07;102680.84;5008958;28;20056;-74
2022/03/07 02:34:12;;;;;;;16.30;12.13;;;;;;;-1.91;77.48;102686.84;5009533;28;20167;-74
2022/03/07 02:36:38;;;;;;;18.83;12.20;;;;;;;-1.93;77.43;102691.13;5007098;28;20042;-74
2022/03/07 02:39:05;;;;;;;18.33;13.15;;;;;;;-1.94;77.49;102688.56;5007807;28;20386;-74
2022/03/07 02:41:30;;;;;;;17.83;13.43;;;;;;;-1.97;77.80;102685.94;5009929;28;20041;-74
2022/03/07 02:43:56;;;;;;;17.35;12.95;;;;;;;-1.97;77.86;102691.97;5007972;28;20857;-74
2022/03/07 02:46:21;;;;;;;16.80;13.60;;;;;;;-2.00;77.72;102691.06;4989558;28;20085;-74
2022/03/07 02:48:46;;;;;;;18.17;13.35;;;;;;;-2.01;77.66;102690.19;4990148;28;20026;-74
2022/03/07 02:51:12;;;;;;;18.23;13.10;;;;;;;-2.05;77.66;102688.44;4989279;28;20026;-74
2022/03/07 02:53:37;;;;;;;17.70;13.02;;;;;;;-2.07;77.93;102691.88;4997657;28;20018;-74
2022/03/07 02:56:03;;;;;;;19.13;13.52;;;;;;;-2.10;78.00;102684.09;5009288;28;20113;-74
2022/03/07 02:58:28;;;;;;;17.63;12.85;;;;;;;-2.12;78.08;102689.25;5008506;28;20032;-74
2022/03/07 03:00:53;;;;;;;15.98;13.35;;;;;;;-2.13;78.28;102679.78;5005285;28;20033;-74
2022/03/07 03:03:19;;;;;;;18.55;13.23;;;;;;;-2.14;78.42;102683.22;5012636;28;20079;-74
2022/03/07 03:05:44;;;;;;;15.98;13.27;;;;;;;-2.14;78.50;102683.22;5011978;28;20030;-74
2022/03/07 03:08:10;;;;;;;17.85;13.60;;;;;;;-2.12;78.74;102684.09;5011775;28;20751;-74
2022/03/07 03:10:35;;;;;;;19.25;14.02;;;;;;;-2.13;79.19;102677.22;5008416;28;20038;-74
2022/03/07 03:13:00;;;;;;;20.75;15.05;;;;;;;-2.11;79.39;102684.97;5011430;28;20018;-74
2022/03/07 03:15:26;;;;;;;19.95;14.40;;;;;;;-2.07;79.00;102674.69;5011190;28;20036;-74
2022/03/07 03:17:51;;;;;;;19.35;14.27;;;;;;;-2.07;79.52;102678.97;5012452;28;20026;-73
2022/03/07 03:20:17;;;;;;;19.00;13.45;;;;;;;-2.06;79.38;102681.56;5011620;28;20030;-74
2022/03/07 03:22:44;;;;;;;19.40;14.35;;;;;;;-2.07;79.42;102685.00;5011409;28;20079;-74
2022/03/07 03:25:11;;;;;;;19.45;14.52;;;;;;;-2.04;79.60;102685.00;5012177;28;20038;-74
2022/03/07 03:27:37;;;;;;;22.05;14.95;;;;;;;-2.02;79.78;102680.72;5006748;28;20046;-73
2022/03/07 03:30:08;;;;;;;18.13;14.00;;;;;;;-2.00;79.80;102686.78;5000861;28;20053;-74
2022/03/07 03:32:33;;;;;;;19.17;14.50;;;;;;;-1.98;80.19;102687.66;5003520;28;20040;-73
2022/03/07 03:34:59;;;;;;;17.17;14.07;;;;;;;-1.97;79.86;102675.63;5011781;28;20050;-73
2022/03/07 03:37:24;;;;;;;21.75;15.15;;;;;;;-1.98;80.04;102685.09;5012418;28;20090;-74
2022/03/07 03:39:51;;;;;;;20.40;14.85;;;;;;;-1.97;80.08;102691.97;5012796;28;20061;-73
2022/03/07 03:42:16;;;;;;;21.58;14.75;;;;;;;-1.95;79.95;102684.25;5011780;28;20018;-74
2022/03/07 03:44:42;;;;;;;18.95;14.57;;;;;;;-1.94;79.95;102676.50;5012502;28;20363;-74
2022/03/07 03:47:07;;;;;;;22.45;15.80;;;;;;;-1.94;80.10;102686.84;5007605;28;20156;-74
2022/03/07 03:49:33;;;;;;;17.13;13.90;;;;;;;-1.93;79.68;102678.25;5010651;28;20045;-74
2022/03/07 03:51:58;;;;;;;18.60;14.88;;;;;;;-1.91;79.65;102689.44;5012400;28;20022;-74
2022/03/07 03:54:23;;;;;;;19.52;14.98;;;;;;;-1.94;79.11;102686.84;5011124;28;20391;-74
2022/03/07 03:56:50;;;;;;;19.58;14.52;;;;;;;-1.95;79.01;102689.41;5012282;28;20026;-74
2022/03/07 03:59:15;;;;;;;19.77;14.45;;;;;;;-1.97;78.96;102691.97;5003043;28;20121;-73
2022/03/07 04:01:44;;;;;;;18.92;14.30;;;;;;;-1.99;78.70;102698.84;4991978;28;20121;-74
2022/03/07 04:04:10;;;;;;;21.02;14.93;;;;;;;-2.01;78.96;102695.34;4997218;28;20033;-74
2022/03/07 04:06:36;;;;;;;20.00;15.82;;;;;;;-2.00;79.98;102697.09;5011204;28;20030;-74
2022/03/07 04:09:28;;;;;;;20.98;15.93;;;;;;;-1.94;79.75;102698.88;5006246;28;20037;-74
2022/03/07 04:11:54;;;;;;;20.48;16.00;;;;;;;-1.97;79.91;102699.72;5010336;28;20082;-74
2022/03/07 04:14:20;;;;;;;22.80;15.95;;;;;;;-1.96;80.35;102701.44;5012019;28;20037;-73
2022/03/07 04:16:45;;;;;;;20.90;15.35;;;;;;;-1.96;79.92;102698.84;5026096;28;20113;-73
2022/03/07 04:19:12;;;;;;;20.10;15.38;;;;;;;-1.93;79.72;102701.44;5011408;28;20443;-73
2022/03/07 04:21:39;;;;;;;21.67;15.50;;;;;;;-1.93;80.13;102698.00;5010962;28;20478;-73
2022/03/07 04:24:05;;;;;;;21.77;15.10;;;;;;;-1.95;80.20;102695.41;5009991;28;20104;-74
2022/03/07 04:26:31;;;;;;;18.55;15.07;;;;;;;-1.93;79.81;102688.56;5006131;28;20038;-73
2022/03/07 04:28:56;;;;;;;20.35;15.35;;;;;;;-1.94;80.01;102693.72;5003893;28;20124;-73
2022/03/07 04:31:22;;;;;;;22.75;15.32;;;;;;;-1.95;79.97;102697.13;5010378;28;20441;-73
2022/03/07 04:33:48;;;;;;;19.38;15.43;;;;;;;-1.95;80.08;102692.84;5009472;28;20026;-74
2022/03/07 04:36:14;;;;;;;22.83;15.25;;;;;;;-1.95;80.43;102694.56;5010670;28;20050;-73
2022/03/07 04:38:39;;;;;;;23.13;15.23;;;;;;;-1.96;80.19;102683.38;5009849;28;20040;-73
2022/03/07 04:41:05;;;;;;;20.73;14.65;;;;;;;-1.93;80.45;102683.41;5009450;28;20026;-73
2022/03/07 04:43:30;;;;;;;17.35;14.85;;;;;;;-1.92;80.22;102690.28;5005966;28;20029;-73
2022/03/07 04:45:56;;;;;;;20.95;14.98;;;;;;;-1.92;80.25;102690.28;5008680;28;20297;-74
2022/03/07 04:48:22;;;;;;;20.52;15.43;;;;;;;-1.93;80.35;102683.41;5010619;28;20036;-73
2022/03/07 04:50:47;;;;;;;22.02;16.02;;;;;;;-1.90;80.51;102693.75;5006138;28;20080;-74
2022/03/07 04:53:13;;;;;;;19.52;15.00;;;;;;;-1.90;80.02;102691.16;5008734;28;20529;-73
2022/03/07 04:55:38;;;;;;;21.25;15.95;;;;;;;-1.89;80.35;102686.84;5010493;28;20084;-73
2022/03/07 04:58:05;;;;;;;21.20;15.35;;;;;;;-1.87;80.41;102692.03;5009766;28;20077;-74
2022/03/07 05:00:31;;;;;;;23.80;15.70;;;;;;;-1.86;80.26;102693.75;4997315;28;20375;-73
2022/03/07 05:02:57;;;;;;;20.92;15.57;;;;;;;-1.87;80.22;102692.03;5010089;28;20739;-73
2022/03/07 05:05:22;;;;;;;24.92;16.70;;;;;;;-1.87;80.18;102697.19;5001741;28;20033;-73
2022/03/07 05:07:50;;;;;;;19.88;15.50;;;;;;;-1.88;80.48;102693.75;5009020;28;20025;-73
2022/03/07 05:10:17;;;;;;;22.15;16.30;;;;;;;-1.88;79.98;102690.31;5009566;28;20030;-73
2022/03/07 05:12:43;;;;;;;20.20;15.13;;;;;;;-1.87;79.85;102697.19;5008975;28;20478;-73
2022/03/07 05:15:09;;;;;;;22.85;15.63;;;;;;;-1.87;79.62;102686.88;5005103;28;20060;-73
2022/03/07 05:17:46;;;;;;;20.23;15.75;;;;;;;-1.87;79.57;102684.28;5008353;28;20437;-73
2022/03/07 05:20:14;;;;;;;22.02;16.00;;;;;;;-1.93;79.82;102688.56;5010014;28;20026;-73
2022/03/07 05:22:39;;;;;;;20.30;15.77;;;;;;;-1.98;79.49;102684.22;5009643;28;20072;-73
2022/03/07 05:25:06;;;;;;;20.67;15.00;;;;;;;-2.02;79.09;102691.03;5009315;28;20041;-73
2022/03/07 05:27:31;;;;;;;18.60;15.60;;;;;;;-2.05;79.49;102688.44;5010095;28;20025;-73
2022/03/07 05:29:56;;;;;;;26.15;16.05;;;;;;;-2.07;79.88;102690.16;5002286;28;20037;-73
2022/03/07 05:32:22;;;;;;;21.58;16.02;;;;;;;-2.06;79.99;102681.56;4990989;28;20034;-73
2022/03/07 05:34:47;;;;;;;19.33;16.00;;;;;;;-2.07;80.12;102687.56;5000373;28;20054;-73
2022/03/07 05:37:13;;;;;;;21.13;16.10;;;;;;;-2.09;79.93;102685.84;5009930;28;20053;-73
2022/03/07 05:39:38;;;;;;;22.80;15.82;;;;;;;-2.10;80.21;102684.09;5010301;28;20119;-73
2022/03/07 05:42:04;;;;;;;22.40;16.30;;;;;;;-2.10;80.20;102695.28;5009598;28;20037;-73
2022/03/07 05:44:29;;;;;;;21.55;16.15;;;;;;;-2.11;80.08;102697.84;5007598;28;20038;-73
2022/03/07 05:46:55;;;;;;;22.67;16.63;;;;;;;-2.15;80.06;102691.81;5009540;28;20025;-73
2022/03/07 05:49:20;;;;;;;20.67;16.02;;;;;;;-2.18;79.86;102701.22;5008883;28;20497;-72
2022/03/07 05:51:46;;;;;;;23.58;16.67;;;;;;;-2.21;80.07;102699.50;5006985;28;20038;-73
2022/03/07 05:54:11;;;;;;;21.42;16.48;;;;;;;-2.25;80.02;102705.47;5008750;28;20025;-73
2022/03/07 05:56:37;;;;;;;23.85;16.75;;;;;;;-2.30;79.58;102696.84;5009307;28;20109;-74
2022/03/07 05:59:02;;;;;;;24.70;17.10;;;;;;;-2.34;79.83;102690.81;5008601;28;20026;-73
2022/03/07 06:01:27;;;;;;;23.67;16.90;;;;;;;-2.37;80.27;102698.50;4994881;28;20105;-73
2022/03/07 06:03:53;;;;;;;20.77;17.50;;;;;;;-2.37;80.53;102695.06;4990048;28;20106;-73
2022/03/07 06:06:19;;;;;;;26.10;18.25;;;;;;;-2.36;81.03;102707.09;4990509;28;20041;-73
2022/03/07 06:08:44;;;;;;;24.20;17.55;;;;;;;-2.35;81.21;102714.84;5003584;28;20037;-73
2022/03/07 06:11:09;;;;;;;27.92;17.80;;;;;;;-2.32;81.18;102719.16;5009229;28;20409;-73
2022/03/07 06:13:35;;;;;;;25.25;17.50;;;;;;;-2.32;81.03;102714.00;5009364;28;20470;-73
2022/03/07 06:16:03;;;;;;;25.30;17.77;;;;;;;-2.30;81.02;102717.47;5005059;28;20052;-73
2022/03/07 06:18:28;;;;;;;27.80;18.17;;;;;;;-2.32;80.68;102724.31;4989952;28;20031;-73
2022/03/07 06:20:54;;;;;;;23.35;17.23;;;;;;;-2.30;80.68;102722.63;5000058;28;20030;-76
2022/03/07 06:23:19;;;;;;;26.83;18.30;;;;;;;-2.30;81.01;102722.63;4999869;28;20054;-76
2022/03/07 06:25:45;;;;;;;27.35;18.95;;;;;;;-2.27;81.36;102722.66;4996118;28;20022;-76
2022/03/07 06:28:11;;;;;;;29.60;19.30;;;;;;;-2.27;81.77;102731.25;5009706;28;20526;-76
2022/03/07 06:30:39;;;;;;;31.23;18.63;;;;;;;-2.26;81.83;102737.25;5002503;28;20097;-76
2022/03/07 06:33:04;;;;;;;34.92;19.38;;;;;;;-2.25;81.88;102733.84;5009411;28;20026;-75
2022/03/07 06:35:30;;;;;;;27.13;19.60;;;;;;;-2.24;82.24;102738.13;5011595;28;20545;-75
2022/03/07 06:37:55;;;;;;;30.48;19.70;;;;;;;-2.24;82.39;102738.13;5004998;28;20037;-75
2022/03/07 06:40:22;;;;;;;31.90;19.35;;;;;;;-2.22;82.06;102741.59;5002350;28;20033;-75
2022/03/07 06:42:47;;;;;;;25.30;19.35;;;;;;;-2.23;82.27;102740.72;5003969;28;20025;-76
2022/03/07 06:45:16;;;;;;;30.70;19.95;;;;;;;-2.22;81.92;102741.59;5003359;28;20034;-75
2022/03/07 06:47:43;;;;;;;27.23;18.80;;;;;;;-2.20;82.02;102742.47;5004353;28;20022;-75
2022/03/07 06:50:09;;;;;;;25.92;19.13;;;;;;;-2.18;81.90;102745.06;5002618;28;20025;-76
2022/03/07 06:52:34;;;;;;;27.58;19.35;;;;;;;-2.18;81.99;102738.19;5006654;28;20026;-75
2022/03/07 06:54:59;;;;;;;25.80;20.40;;;;;;;-2.15;81.84;102740.78;5002346;28;20022;-75
2022/03/07 06:57:25;;;;;;;28.13;20.30;;;;;;;-2.13;82.02;102751.97;5004315;28;20026;-75
2022/03/07 06:59:50;;;;;;;27.13;19.83;;;;;;;-2.11;82.01;102745.13;5001933;28;20048;-73
2022/03/07 07:02:16;;;;;;;29.83;19.73;;;;;;;-2.10;82.06;102756.31;5004713;28;20022;-73
2022/03/07 07:04:41;;;;;;;29.50;20.27;;;;;;;-2.08;82.02;102749.44;5001520;28;20382;-73
2022/03/07 07:07:07;;;;;;;27.90;19.38;;;;;;;-2.06;81.77;102748.59;5002058;28;20391;-72
2022/03/07 07:09:32;;;;;;;28.83;20.02;;;;;;;-2.04;81.67;102746.91;5002147;28;20026;-73
2022/03/07 07:11:57;;;;;;;30.92;19.65;;;;;;;-2.01;81.80;102746.94;5002658;28;20022;-73
2022/03/07 07:14:23;;;;;;;30.17;20.42;;;;;;;-1.98;82.17;102751.28;4999764;28;20026;-73
2022/03/07 07:16:48;;;;;;;26.83;20.30;;;;;;;-1.95;82.14;102747.00;5001044;28;20023;-73
2022/03/07 07:19:14;;;;;;;29.80;19.85;;;;;;;-1.91;82.28;102753.06;5000973;28;20363;-73
2022/03/07 07:21:40;;;;;;;26.67;19.42;;;;;;;-1.89;81.99;102741.03;5000660;28;20092;-73
2022/03/07 07:24:06;;;;;;;27.20;20.77;;;;;;;-1.84;82.65;102746.22;5001574;28;20015;-73
2022/03/07 07:26:31;;;;;;;29.77;19.52;;;;;;;-1.81;82.23;102743.66;5001579;28;20033;-73
2022/03/07 07:28:57;;;;;;;28.90;20.17;;;;;;;-1.76;81.98;102745.41;5000534;28;20040;-73
2022/03/07 07:31:22;;;;;;;25.98;19.45;;;;;;;-1.71;81.60;102742.88;5001229;28;20026;-73
2022/03/07 07:33:47;;;;;;;24.90;20.15;;;;;;;-1.68;81.65;102742.88;5001680;28;20364;-73
2022/03/07 07:36:13;;;;;;;27.13;20.63;;;;;;;-1.62;81.62;102740.34;5003857;28;20062;-73
2022/03/07 07:38:38;;;;;;;24.80;19.55;;;;;;;-1.57;81.96;102738.69;5005449;28;20035;-73
2022/03/07 07:41:03;;;;;;;30.40;19.38;;;;;;;-1.50;81.33;102737.88;5003982;28;20432;-73
2022/03/07 07:43:28;;;;;;;27.42;19.60;;;;;;;-1.44;81.21;102745.66;5006096;28;20500;-72
2022/03/07 07:45:54;;;;;;;23.65;18.85;;;;;;;-1.38;80.57;102750.84;5011288;28;20037;-73
2022/03/07 07:48:19;;;;;;;24.23;18.88;;;;;;;-1.31;80.52;102746.56;5011948;28;20316;-73
2022/03/07 07:50:44;;;;;;;23.77;18.63;;;;;;;-1.25;80.55;102751.75;5011289;28;20110;-73
2022/03/07 07:53:10;;;;;;;22.80;17.65;;;;;;;-1.18;80.14;102757.84;5002438;28;20087;-73
2022/03/07 07:55:35;;;;;;;23.42;18.02;;;;;;;-1.11;80.03;102754.44;5007798;28;20125;-73
2022/03/07 07:58:00;;;;;;;25.20;18.35;;;;;;;-1.04;80.02;102751.03;4993218;28;20035;-73
2022/03/07 08:00:27;;;;;;;21.85;17.75;;;;;;;-0.96;79.76;102749.34;4998207;28;20112;-73
2022/03/07 08:02:52;;;;;;;23.77;17.85;;;;;;;-0.90;79.01;102756.25;5011047;28;20030;-73
2022/03/07 08:05:18;;;;;;;21.63;17.73;;;;;;;-0.82;78.68;102751.97;4996128;28;20039;-73
2022/03/07 08:07:45;;;;;;;21.95;17.45;;;;;;;-0.74;78.26;102751.16;5001188;28;20062;-74
2022/03/07 08:10:12;;;;;;;21.70;17.33;;;;;;;-0.65;78.03;102755.50;4997795;28;20051;-72
2022/03/07 08:12:37;;;;;;;23.13;16.33;;;;;;;-0.56;77.31;102754.66;5001698;28;20040;-73
2022/03/07 08:15:05;;;;;;;19.70;16.38;;;;;;;-0.47;77.64;102754.66;5008329;28;20399;-73
2022/03/07 08:17:31;;;;;;;22.60;16.08;;;;;;;-0.36;76.66;102758.16;5014720;28;20036;-75
2022/03/07 08:19:56;;;;;;;20.50;14.93;;;;;;;-0.27;75.81;102763.34;4994209;28;20364;-73
2022/03/07 08:22:21;;;;;;;18.73;14.85;;;;;;;-0.19;74.93;102750.41;4992469;28;20398;-73
2022/03/07 08:24:47;;;;;;;18.38;14.70;;;;;;;-0.07;74.82;102761.63;4991654;28;20093;-73
2022/03/07 08:27:12;;;;;;;17.55;13.98;;;;;;;0.03;74.29;102752.16;4995731;28;20501;-75
2022/03/07 08:29:37;;;;;;;18.67;14.25;;;;;;;0.11;73.86;102753.03;5009010;28;20022;-75
2022/03/07 08:32:03;;;;;;;21.77;14.60;;;;;;;0.21;72.92;102751.28;4991318;28;20622;-75
2022/03/07 08:34:28;;;;;;;15.50;12.75;;;;;;;0.27;72.43;102759.06;5009636;28;20114;-75
2022/03/07 08:36:54;;;;;;;16.73;13.80;;;;;;;0.39;71.84;102759.03;5000266;28;20031;-75
2022/03/07 08:39:19;;;;;;;17.30;13.50;;;;;;;0.46;71.48;102760.78;5005741;28;20077;-73
2022/03/07 08:41:44;;;;;;;17.85;13.48;;;;;;;0.56;70.98;102757.31;5003399;28;20081;-74
2022/03/07 08:44:09;;;;;;;15.93;12.93;;;;;;;0.65;70.94;102755.56;5000288;28;20036;-73
2022/03/07 08:46:35;;;;;;;17.05;12.65;;;;;;;0.74;71.05;102758.13;4996454;28;20030;-73
2022/03/07 08:49:03;;;;;;;17.13;13.38;;;;;;;0.86;70.81;102758.09;4997993;28;20030;-73
2022/03/07 08:51:28;;;;;;;16.83;11.93;;;;;;;0.97;69.74;102753.75;4994681;28;20471;-74
2022/03/07 08:53:55;;;;;;;15.50;11.57;;;;;;;1.05;69.78;102748.53;5007269;28;20049;-73
2022/03/07 08:56:20;;;;;;;16.48;12.15;;;;;;;1.14;69.33;102746.75;5011375;28;20040;-73
2022/03/07 08:58:45;;;;;;;14.02;11.65;;;;;;;1.23;67.65;102748.47;5009549;28;20026;-73
2022/03/07 09:01:16;;;;;;;15.88;11.15;;;;;;;1.31;67.58;102749.28;5010189;28;20026;-75
2022/03/07 09:03:41;;;;;;;15.23;11.82;;;;;;;1.37;67.97;102741.47;4990743;28;20018;-75
2022/03/07 09:06:08;;;;;;;12.88;10.65;;;;;;;1.47;66.61;102730.16;4990838;28;20022;-75
2022/03/07 09:08:33;;;;;;;16.55;10.95;;;;;;;1.57;66.18;102733.56;5022588;28;20029;-74
2022/03/07 09:10:58;;;;;;;15.75;10.60;;;;;;;1.64;66.28;102735.25;5025373;28;20074;-74
2022/03/07 09:13:24;;;;;;;13.70;10.50;;;;;;;1.72;66.06;102730.88;5000622;28;20645;-73
2022/03/07 09:15:49;;;;;;;14.30;10.93;;;;;;;1.81;66.32;102735.13;4996564;28;20026;-76
2022/03/07 09:18:14;;;;;;;12.10;10.10;;;;;;;1.91;66.27;102735.91;4998373;28;20029;-75
2022/03/07 09:20:40;;;;;;;14.57;10.02;;;;;;;1.98;64.49;102730.66;5000086;28;20022;-75
2022/03/07 09:23:05;;;;;;;12.23;9.80;;;;;;;2.08;63.83;102739.25;5000570;28;20023;-76
2022/03/07 09:25:31;;;;;;;12.25;8.95;;;;;;;2.16;62.93;102737.47;4998353;28;20028;-74
2022/03/07 09:27:56;;;;;;;14.52;9.45;;;;;;;2.23;63.74;102733.06;5001723;28;20026;-76
2022/03/07 09:30:23;;;;;;;12.85;9.13;;;;;;;2.30;62.55;102721.75;5001708;28;20019;-76
2022/03/07 09:32:49;;;;;;;11.98;8.55;;;;;;;2.36;61.03;102721.69;4998241;28;20026;-74
2022/03/07 09:35:14;;;;;;;9.00;8.07;;;;;;;2.45;61.17;102719.00;5000581;28;20572;-74
2022/03/07 09:37:40;;;;;;;11.95;8.30;;;;;;;2.53;60.51;102718.94;4995785;28;20060;-75
2022/03/07 09:40:06;;;;;;;9.60;7.70;;;;;;;2.63;60.65;102720.53;4999318;28;20030;-74
2022/03/07 09:42:31;;;;;;;9.00;7.90;;;;;;;2.70;59.93;102712.66;4998739;28;20037;-74
2022/03/07 09:44:57;;;;;;;8.57;7.30;;;;;;;2.77;59.53;102723.84;5008330;28;20033;-74
2022/03/07 09:47:22;;;;;;;9.68;7.90;;;;;;;2.84;60.09;102712.53;5002888;28;20029;-74
2022/03/07 09:49:51;;;;;;;9.05;7.75;;;;;;;2.91;59.59;102710.72;5008182;28;20569;-74
2022/03/07 09:52:16;;;;;;;9.93;8.00;;;;;;;2.98;59.76;102707.16;5009569;28;20026;-74
2022/03/07 09:54:41;;;;;;;13.25;7.43;;;;;;;3.06;58.78;102711.38;5009653;28;20030;-74
2022/03/07 09:57:07;;;;;;;11.70;7.72;;;;;;;3.13;59.37;102707.78;5010035;28;20437;-74
2022/03/07 09:59:34;;;;;;;10.18;7.05;;;;;;;3.22;58.58;102717.25;5010442;28;20022;-76
2022/03/07 10:02:05;;;;;;;7.93;6.55;;;;;;;3.29;57.93;102708.47;5009520;28;20038;-76
2022/03/07 10:04:32;;;;;;;10.05;6.40;;;;;;;3.38;58.17;102702.28;5010658;28;20029;-74
2022/03/07 10:07:02;;;;;;;9.80;6.75;;;;;;;3.48;58.11;102696.03;5007383;28;20030;-74
2022/03/07 10:09:27;;;;;;;8.02;6.72;;;;;;;3.56;58.00;102696.78;4988785;28;20029;-74
2022/03/07 10:11:56;;;;;;;11.82;6.75;;;;;;;3.66;57.18;102687.97;4990256;28;20030;-74
2022/03/07 10:14:44;;;;;;;9.02;6.80;;;;;;;3.76;58.55;102689.53;4989951;28;20451;-74
2022/03/07 10:17:20;;;;;;;7.53;5.80;;;;;;;3.86;56.75;102682.44;4989990;28;20403;-75
2022/03/07 10:19:47;;;;;;;7.90;6.20;;;;;;;3.95;56.28;102687.47;4990286;28;20128;-75
2022/03/07 10:22:19;;;;;;;8.90;5.90;;;;;;;4.02;56.06;102676.09;4989207;28;20049;-74
2022/03/07 10:24:45;;;;;;;6.80;5.43;;;;;;;4.10;54.71;102694.19;4989973;28;20038;-74
2022/03/07 10:27:10;;;;;;;8.10;5.30;;;;;;;4.18;55.27;102681.03;4988311;28;20058;-74
2022/03/07 10:29:46;;;;;;;6.68;4.70;;;;;;;4.25;54.50;102678.28;4989297;28;20156;-75
2022/03/07 10:32:18;;;;;;;7.43;5.20;;;;;;;4.33;54.89;102676.38;4989380;28;20034;-74
2022/03/07 10:34:44;;;;;;;7.07;5.27;;;;;;;4.40;53.95;102683.22;4989435;28;20160;-74
2022/03/07 10:37:09;;;;;;;7.75;5.07;;;;;;;4.47;53.77;102672.69;4988857;28;20409;-74
2022/03/07 10:39:35;;;;;;;7.28;4.75;;;;;;;4.56;53.75;102672.50;4989992;28;20098;-75
2022/03/07 10:42:03;;;;;;;5.93;5.03;;;;;;;4.64;53.64;102668.00;4989500;28;20022;-75
2022/03/07 10:44:32;;;;;;;9.27;5.28;;;;;;;4.74;53.42;102666.91;4994684;28;20478;-75
2022/03/07 10:47:20;;;;;;;7.57;5.40;;;;;;;4.84;54.53;102658.03;4998767;28;20097;-75
2022/03/07 10:49:58;;;;;;;7.18;5.47;;;;;;;4.93;53.24;102654.34;4992614;28;20034;-75
2022/03/07 10:52:34;;;;;;;8.77;5.63;;;;;;;5.04;52.73;102654.97;5001001;28;20032;-75
2022/03/07 10:55:05;;;;;;;6.35;5.20;;;;;;;5.19;52.53;102643.34;4997176;28;20026;-75
2022/03/07 10:57:36;;;;;;;6.35;5.35;;;;;;;5.35;52.36;102640.34;5000396;28;20093;-75
2022/03/07 11:00:08;;;;;;;7.50;5.22;;;;;;;5.49;52.54;102632.19;4997506;28;20063;-75
2022/03/07 11:02:40;;;;;;;6.53;5.60;;;;;;;5.64;52.42;102624.00;4996180;28;20061;-75
2022/03/07 11:05:07;;;;;;;;;;;;;;;5.73;54.41;102619.44;4988518;28;20092;-76
2022/03/07 11:07:34;;;;;;;8.10;5.57;;;;;;;5.77;49.82;102626.28;4990039;28;19909;-76
2022/03/07 11:09:59;;;;;;;7.97;5.75;;;;;;;5.85;49.90;102621.72;4989850;28;20029;-76